Aviation Digital Data Service (ADDS)

Output produced by TAFs form (0453 UTC 23 February 2017)
found at http://aviationweather.gov/adds/tafs/
 
KELP 222324Z 2300/2324 25009KT P6SM SKC 
     FM231600 24018G25KT P6SM SKC 
     FM232000 25028G40KT 6SM BLDU SKC